sensor_id;sensor_type;location;lat;lon;timestamp;P1;durP1;ratioP1;P2;durP2;ratioP2
76409;SDS011;65238;42.662;23.280;2023-04-24T00:00:49;19.00;;;9.30;;
76409;SDS011;65238;42.662;23.280;2023-04-24T00:03:15;16.98;;;9.32;;
76409;SDS011;65238;42.662;23.280;2023-04-24T00:05:41;20.17;;;12.80;;
76409;SDS011;65238;42.662;23.280;2023-04-24T00:08:07;37.10;;;21.17;;
76409;SDS011;65238;42.662;23.280;2023-04-24T00:10:33;27.77;;;14.50;;
76409;SDS011;65238;42.662;23.280;2023-04-24T00:12:58;15.57;;;10.52;;
76409;SDS011;65238;42.662;23.280;2023-04-24T00:15:24;16.08;;;9.98;;
76409;SDS011;65238;42.662;23.280;2023-04-24T00:17:49;16.98;;;9.75;;
76409;SDS011;65238;42.662;23.280;2023-04-24T00:20:14;14.20;;;9.25;;
76409;SDS011;65238;42.662;23.280;2023-04-24T00:22:40;12.75;;;8.68;;
76409;SDS011;65238;42.662;23.280;2023-04-24T00:25:06;13.40;;;8.60;;
76409;SDS011;65238;42.662;23.280;2023-04-24T00:27:31;15.88;;;8.73;;
76409;SDS011;65238;42.662;23.280;2023-04-24T00:29:57;13.00;;;8.82;;
76409;SDS011;65238;42.662;23.280;2023-04-24T00:32:22;19.67;;;8.82;;
76409;SDS011;65238;42.662;23.280;2023-04-24T00:34:47;14.50;;;9.65;;
76409;SDS011;65238;42.662;23.280;2023-04-24T00:37:13;15.25;;;8.88;;
76409;SDS011;65238;42.662;23.280;2023-04-24T00:39:38;14.77;;;8.90;;
76409;SDS011;65238;42.662;23.280;2023-04-24T00:42:04;15.43;;;8.55;;
76409;SDS011;65238;42.662;23.280;2023-04-24T00:44:31;13.45;;;8.85;;
76409;SDS011;65238;42.662;23.280;2023-04-24T00:46:58;17.08;;;9.85;;
76409;SDS011;65238;42.662;23.280;2023-04-24T00:49:24;14.60;;;9.02;;
76409;SDS011;65238;42.662;23.280;2023-04-24T00:51:49;15.13;;;9.50;;
76409;SDS011;65238;42.662;23.280;2023-04-24T00:54:16;18.50;;;9.20;;
76409;SDS011;65238;42.662;23.280;2023-04-24T00:56:42;13.82;;;9.32;;
76409;SDS011;65238;42.662;23.280;2023-04-24T00:59:07;17.65;;;9.30;;
76409;SDS011;65238;42.662;23.280;2023-04-24T01:01:33;15.38;;;9.23;;
76409;SDS011;65238;42.662;23.280;2023-04-24T01:04:00;16.63;;;9.20;;
76409;SDS011;65238;42.662;23.280;2023-04-24T01:06:27;14.80;;;9.10;;
76409;SDS011;65238;42.662;23.280;2023-04-24T01:08:53;16.52;;;9.88;;
76409;SDS011;65238;42.662;23.280;2023-04-24T01:11:21;15.95;;;10.43;;
76409;SDS011;65238;42.662;23.280;2023-04-24T01:13:47;13.05;;;9.10;;
76409;SDS011;65238;42.662;23.280;2023-04-24T01:16:13;15.52;;;9.65;;
76409;SDS011;65238;42.662;23.280;2023-04-24T01:18:42;15.35;;;9.55;;
76409;SDS011;65238;42.662;23.280;2023-04-24T01:21:08;18.48;;;9.43;;
76409;SDS011;65238;42.662;23.280;2023-04-24T01:23:34;13.93;;;9.55;;
76409;SDS011;65238;42.662;23.280;2023-04-24T01:26:00;18.05;;;9.75;;
76409;SDS011;65238;42.662;23.280;2023-04-24T01:28:25;14.93;;;10.00;;
76409;SDS011;65238;42.662;23.280;2023-04-24T01:30:51;18.13;;;9.73;;
76409;SDS011;65238;42.662;23.280;2023-04-24T01:33:17;17.85;;;9.52;;
76409;SDS011;65238;42.662;23.280;2023-04-24T01:35:43;13.80;;;9.02;;
76409;SDS011;65238;42.662;23.280;2023-04-24T01:38:08;16.73;;;9.07;;
76409;SDS011;65238;42.662;23.280;2023-04-24T01:40:34;15.05;;;9.85;;
76409;SDS011;65238;42.662;23.280;2023-04-24T01:42:59;14.35;;;9.27;;
76409;SDS011;65238;42.662;23.280;2023-04-24T01:45:25;14.70;;;10.00;;
76409;SDS011;65238;42.662;23.280;2023-04-24T01:47:50;14.95;;;10.07;;
76409;SDS011;65238;42.662;23.280;2023-04-24T01:50:16;15.75;;;10.63;;
76409;SDS011;65238;42.662;23.280;2023-04-24T01:52:42;19.00;;;9.73;;
76409;SDS011;65238;42.662;23.280;2023-04-24T01:55:07;13.57;;;9.57;;
76409;SDS011;65238;42.662;23.280;2023-04-24T01:57:33;16.70;;;10.02;;
76409;SDS011;65238;42.662;23.280;2023-04-24T01:59:59;14.52;;;9.80;;
76409;SDS011;65238;42.662;23.280;2023-04-24T02:02:25;16.08;;;10.95;;
76409;SDS011;65238;42.662;23.280;2023-04-24T02:04:52;19.70;;;10.95;;
76409;SDS011;65238;42.662;23.280;2023-04-24T02:07:18;14.40;;;10.68;;
76409;SDS011;65238;42.662;23.280;2023-04-24T02:09:44;17.15;;;11.05;;
76409;SDS011;65238;42.662;23.280;2023-04-24T02:12:09;16.00;;;9.65;;
76409;SDS011;65238;42.662;23.280;2023-04-24T02:14:35;15.15;;;10.48;;
76409;SDS011;65238;42.662;23.280;2023-04-24T02:17:00;17.23;;;10.15;;
76409;SDS011;65238;42.662;23.280;2023-04-24T02:19:26;16.10;;;10.40;;
76409;SDS011;65238;42.662;23.280;2023-04-24T02:21:51;15.80;;;10.40;;
76409;SDS011;65238;42.662;23.280;2023-04-24T02:24:17;16.08;;;10.30;;
76409;SDS011;65238;42.662;23.280;2023-04-24T02:26:42;16.15;;;9.63;;
76409;SDS011;65238;42.662;23.280;2023-04-24T02:29:08;14.27;;;8.88;;
76409;SDS011;65238;42.662;23.280;2023-04-24T02:31:33;17.98;;;9.65;;
76409;SDS011;65238;42.662;23.280;2023-04-24T02:33:58;16.25;;;9.32;;
76409;SDS011;65238;42.662;23.280;2023-04-24T02:36:24;14.18;;;9.90;;
76409;SDS011;65238;42.662;23.280;2023-04-24T02:38:50;14.52;;;9.30;;
76409;SDS011;65238;42.662;23.280;2023-04-24T02:41:15;12.55;;;8.93;;
76409;SDS011;65238;42.662;23.280;2023-04-24T02:43:40;15.18;;;9.45;;
76409;SDS011;65238;42.662;23.280;2023-04-24T02:46:06;19.05;;;10.35;;
76409;SDS011;65238;42.662;23.280;2023-04-24T02:48:31;16.80;;;9.43;;
76409;SDS011;65238;42.662;23.280;2023-04-24T02:50:56;16.23;;;9.55;;
76409;SDS011;65238;42.662;23.280;2023-04-24T02:53:22;18.25;;;10.60;;
76409;SDS011;65238;42.662;23.280;2023-04-24T02:55:48;14.63;;;10.40;;
76409;SDS011;65238;42.662;23.280;2023-04-24T02:58:13;19.48;;;9.90;;
76409;SDS011;65238;42.662;23.280;2023-04-24T03:00:39;19.10;;;10.40;;
76409;SDS011;65238;42.662;23.280;2023-04-24T03:03:04;21.33;;;11.45;;
76409;SDS011;65238;42.662;23.280;2023-04-24T03:05:30;16.08;;;10.35;;
76409;SDS011;65238;42.662;23.280;2023-04-24T03:07:56;22.83;;;10.65;;
76409;SDS011;65238;42.662;23.280;2023-04-24T03:10:21;16.58;;;10.45;;
76409;SDS011;65238;42.662;23.280;2023-04-24T03:12:50;22.00;;;10.85;;
76409;SDS011;65238;42.662;23.280;2023-04-24T03:15:15;18.52;;;11.43;;
76409;SDS011;65238;42.662;23.280;2023-04-24T03:17:41;19.23;;;10.40;;
76409;SDS011;65238;42.662;23.280;2023-04-24T03:20:06;13.98;;;10.27;;
76409;SDS011;65238;42.662;23.280;2023-04-24T03:22:33;15.55;;;10.18;;
76409;SDS011;65238;42.662;23.280;2023-04-24T03:24:59;16.98;;;10.82;;
76409;SDS011;65238;42.662;23.280;2023-04-24T03:27:24;16.50;;;10.13;;
76409;SDS011;65238;42.662;23.280;2023-04-24T03:29:50;16.92;;;10.35;;
76409;SDS011;65238;42.662;23.280;2023-04-24T03:32:21;18.60;;;9.80;;
76409;SDS011;65238;42.662;23.280;2023-04-24T03:34:48;14.18;;;9.43;;
76409;SDS011;65238;42.662;23.280;2023-04-24T03:37:14;15.00;;;9.73;;
76409;SDS011;65238;42.662;23.280;2023-04-24T03:39:40;18.40;;;9.70;;
76409;SDS011;65238;42.662;23.280;2023-04-24T03:42:05;16.38;;;9.93;;
76409;SDS011;65238;42.662;23.280;2023-04-24T03:44:30;12.15;;;8.88;;
76409;SDS011;65238;42.662;23.280;2023-04-24T03:46:57;13.73;;;9.18;;
76409;SDS011;65238;42.662;23.280;2023-04-24T03:49:23;15.25;;;9.20;;
76409;SDS011;65238;42.662;23.280;2023-04-24T03:51:48;14.77;;;9.00;;
76409;SDS011;65238;42.662;23.280;2023-04-24T03:54:14;19.23;;;9.27;;
76409;SDS011;65238;42.662;23.280;2023-04-24T03:56:39;16.42;;;9.57;;
76409;SDS011;65238;42.662;23.280;2023-04-24T03:59:04;14.63;;;9.18;;
76409;SDS011;65238;42.662;23.280;2023-04-24T04:01:30;15.52;;;8.70;;
76409;SDS011;65238;42.662;23.280;2023-04-24T04:03:55;16.45;;;9.43;;
76409;SDS011;65238;42.662;23.280;2023-04-24T04:06:21;16.70;;;8.82;;
76409;SDS011;65238;42.662;23.280;2023-04-24T04:08:47;15.55;;;8.90;;
76409;SDS011;65238;42.662;23.280;2023-04-24T04:11:12;18.35;;;9.45;;
76409;SDS011;65238;42.662;23.280;2023-04-24T04:13:38;19.55;;;9.15;;
76409;SDS011;65238;42.662;23.280;2023-04-24T04:16:03;10.60;;;8.63;;
76409;SDS011;65238;42.662;23.280;2023-04-24T04:18:29;15.60;;;8.95;;
76409;SDS011;65238;42.662;23.280;2023-04-24T04:20:54;15.73;;;8.90;;
76409;SDS011;65238;42.662;23.280;2023-04-24T04:23:21;14.80;;;8.57;;
76409;SDS011;65238;42.662;23.280;2023-04-24T04:25:47;13.10;;;8.38;;
76409;SDS011;65238;42.662;23.280;2023-04-24T04:28:12;18.23;;;9.50;;
76409;SDS011;65238;42.662;23.280;2023-04-24T04:30:38;13.68;;;8.10;;
76409;SDS011;65238;42.662;23.280;2023-04-24T04:33:03;16.02;;;8.75;;
76409;SDS011;65238;42.662;23.280;2023-04-24T04:35:29;12.63;;;7.65;;
76409;SDS011;65238;42.662;23.280;2023-04-24T04:37:54;11.20;;;7.82;;
76409;SDS011;65238;42.662;23.280;2023-04-24T04:40:21;16.20;;;8.32;;
76409;SDS011;65238;42.662;23.280;2023-04-24T04:42:46;14.82;;;8.27;;
76409;SDS011;65238;42.662;23.280;2023-04-24T04:45:12;15.63;;;8.57;;
76409;SDS011;65238;42.662;23.280;2023-04-24T04:47:38;15.88;;;8.57;;
76409;SDS011;65238;42.662;23.280;2023-04-24T04:50:04;22.48;;;8.70;;
76409;SDS011;65238;42.662;23.280;2023-04-24T04:52:30;16.90;;;8.48;;
76409;SDS011;65238;42.662;23.280;2023-04-24T04:54:56;15.65;;;9.23;;
76409;SDS011;65238;42.662;23.280;2023-04-24T04:57:21;17.75;;;9.80;;
76409;SDS011;65238;42.662;23.280;2023-04-24T04:59:46;20.38;;;9.80;;
76409;SDS011;65238;42.662;23.280;2023-04-24T05:02:12;18.48;;;9.50;;
76409;SDS011;65238;42.662;23.280;2023-04-24T05:04:37;18.17;;;9.73;;
76409;SDS011;65238;42.662;23.280;2023-04-24T05:07:03;15.00;;;9.38;;
76409;SDS011;65238;42.662;23.280;2023-04-24T05:09:28;16.17;;;9.48;;
76409;SDS011;65238;42.662;23.280;2023-04-24T05:11:54;24.45;;;11.05;;
76409;SDS011;65238;42.662;23.280;2023-04-24T05:14:20;18.45;;;11.00;;
76409;SDS011;65238;42.662;23.280;2023-04-24T05:16:45;22.77;;;10.70;;
76409;SDS011;65238;42.662;23.280;2023-04-24T05:19:11;25.20;;;11.93;;
76409;SDS011;65238;42.662;23.280;2023-04-24T05:21:38;25.23;;;13.05;;
76409;SDS011;65238;42.662;23.280;2023-04-24T05:24:04;19.48;;;10.85;;
76409;SDS011;65238;42.662;23.280;2023-04-24T05:26:30;17.58;;;10.05;;
76409;SDS011;65238;42.662;23.280;2023-04-24T05:28:56;13.20;;;7.18;;
76409;SDS011;65238;42.662;23.280;2023-04-24T05:31:21;9.35;;;6.10;;
76409;SDS011;65238;42.662;23.280;2023-04-24T05:33:46;11.82;;;7.00;;
76409;SDS011;65238;42.662;23.280;2023-04-24T05:36:12;9.23;;;5.63;;
76409;SDS011;65238;42.662;23.280;2023-04-24T05:38:38;11.38;;;5.80;;
76409;SDS011;65238;42.662;23.280;2023-04-24T05:41:03;10.55;;;5.70;;
76409;SDS011;65238;42.662;23.280;2023-04-24T05:43:29;8.88;;;5.43;;
76409;SDS011;65238;42.662;23.280;2023-04-24T05:45:54;12.50;;;6.20;;
76409;SDS011;65238;42.662;23.280;2023-04-24T05:48:20;15.65;;;7.55;;
76409;SDS011;65238;42.662;23.280;2023-04-24T05:50:47;11.50;;;6.20;;
76409;SDS011;65238;42.662;23.280;2023-04-24T05:53:13;12.52;;;6.40;;
76409;SDS011;65238;42.662;23.280;2023-04-24T05:55:38;13.20;;;6.15;;
76409;SDS011;65238;42.662;23.280;2023-04-24T05:58:04;11.68;;;7.18;;
76409;SDS011;65238;42.662;23.280;2023-04-24T06:00:29;11.65;;;6.40;;
76409;SDS011;65238;42.662;23.280;2023-04-24T06:02:55;9.35;;;6.60;;
76409;SDS011;65238;42.662;23.280;2023-04-24T06:05:20;11.98;;;6.18;;
76409;SDS011;65238;42.662;23.280;2023-04-24T06:07:46;10.65;;;6.68;;
76409;SDS011;65238;42.662;23.280;2023-04-24T06:10:11;11.93;;;6.78;;
76409;SDS011;65238;42.662;23.280;2023-04-24T06:12:36;13.20;;;7.60;;
76409;SDS011;65238;42.662;23.280;2023-04-24T06:15:02;10.68;;;7.00;;
76409;SDS011;65238;42.662;23.280;2023-04-24T06:17:28;11.18;;;7.30;;
76409;SDS011;65238;42.662;23.280;2023-04-24T06:19:54;14.63;;;7.95;;
76409;SDS011;65238;42.662;23.280;2023-04-24T06:22:19;12.98;;;8.13;;
76409;SDS011;65238;42.662;23.280;2023-04-24T06:24:45;11.10;;;7.43;;
76409;SDS011;65238;42.662;23.280;2023-04-24T06:27:10;16.75;;;7.80;;
76409;SDS011;65238;42.662;23.280;2023-04-24T06:29:36;12.45;;;7.40;;
76409;SDS011;65238;42.662;23.280;2023-04-24T06:32:01;19.90;;;7.35;;
76409;SDS011;65238;42.662;23.280;2023-04-24T06:34:27;12.90;;;7.75;;
76409;SDS011;65238;42.662;23.280;2023-04-24T06:36:53;13.27;;;7.95;;
76409;SDS011;65238;42.662;23.280;2023-04-24T06:39:19;13.13;;;7.43;;
76409;SDS011;65238;42.662;23.280;2023-04-24T06:41:45;13.02;;;7.65;;
76409;SDS011;65238;42.662;23.280;2023-04-24T06:44:10;12.63;;;8.25;;
76409;SDS011;65238;42.662;23.280;2023-04-24T06:46:35;16.35;;;8.60;;
76409;SDS011;65238;42.662;23.280;2023-04-24T06:49:01;15.32;;;8.18;;
76409;SDS011;65238;42.662;23.280;2023-04-24T06:51:26;21.17;;;9.27;;
76409;SDS011;65238;42.662;23.280;2023-04-24T06:53:55;14.65;;;8.10;;
76409;SDS011;65238;42.662;23.280;2023-04-24T06:56:23;13.50;;;7.95;;
76409;SDS011;65238;42.662;23.280;2023-04-24T06:58:48;13.32;;;7.90;;
76409;SDS011;65238;42.662;23.280;2023-04-24T07:01:14;13.82;;;8.10;;
76409;SDS011;65238;42.662;23.280;2023-04-24T07:03:39;14.00;;;8.00;;
76409;SDS011;65238;42.662;23.280;2023-04-24T07:06:05;13.23;;;7.30;;
76409;SDS011;65238;42.662;23.280;2023-04-24T07:08:30;14.10;;;7.78;;
76409;SDS011;65238;42.662;23.280;2023-04-24T07:10:57;15.18;;;7.82;;
76409;SDS011;65238;42.662;23.280;2023-04-24T07:13:22;16.67;;;8.18;;
76409;SDS011;65238;42.662;23.280;2023-04-24T07:15:48;20.10;;;7.95;;
76409;SDS011;65238;42.662;23.280;2023-04-24T07:18:15;11.40;;;7.70;;
76409;SDS011;65238;42.662;23.280;2023-04-24T07:20:41;11.45;;;7.80;;
76409;SDS011;65238;42.662;23.280;2023-04-24T07:23:07;16.85;;;8.00;;
76409;SDS011;65238;42.662;23.280;2023-04-24T07:25:32;12.75;;;7.25;;
76409;SDS011;65238;42.662;23.280;2023-04-24T07:27:58;9.27;;;6.22;;
76409;SDS011;65238;42.662;23.280;2023-04-24T07:30:23;9.07;;;5.55;;
76409;SDS011;65238;42.662;23.280;2023-04-24T07:32:49;13.27;;;6.93;;
76409;SDS011;65238;42.662;23.280;2023-04-24T07:35:14;10.35;;;6.70;;
76409;SDS011;65238;42.662;23.280;2023-04-24T07:37:39;12.90;;;6.88;;
76409;SDS011;65238;42.662;23.280;2023-04-24T07:40:05;9.75;;;6.47;;
76409;SDS011;65238;42.662;23.280;2023-04-24T07:42:31;9.70;;;6.55;;
76409;SDS011;65238;42.662;23.280;2023-04-24T07:45:04;10.73;;;5.78;;
76409;SDS011;65238;42.662;23.280;2023-04-24T07:47:31;9.65;;;5.90;;
76409;SDS011;65238;42.662;23.280;2023-04-24T07:49:57;9.38;;;5.43;;
76409;SDS011;65238;42.662;23.280;2023-04-24T07:52:23;10.65;;;6.10;;
76409;SDS011;65238;42.662;23.280;2023-04-24T07:54:48;10.07;;;6.60;;
76409;SDS011;65238;42.662;23.280;2023-04-24T07:57:15;10.27;;;6.57;;
76409;SDS011;65238;42.662;23.280;2023-04-24T07:59:41;10.27;;;6.50;;
76409;SDS011;65238;42.662;23.280;2023-04-24T08:02:06;12.32;;;6.45;;
76409;SDS011;65238;42.662;23.280;2023-04-24T08:04:32;13.75;;;6.93;;
76409;SDS011;65238;42.662;23.280;2023-04-24T08:06:57;11.57;;;7.03;;
76409;SDS011;65238;42.662;23.280;2023-04-24T08:09:23;11.73;;;7.22;;
76409;SDS011;65238;42.662;23.280;2023-04-24T08:11:49;10.30;;;6.15;;
76409;SDS011;65238;42.662;23.280;2023-04-24T08:14:14;10.90;;;5.88;;
76409;SDS011;65238;42.662;23.280;2023-04-24T08:16:40;9.73;;;5.90;;
76409;SDS011;65238;42.662;23.280;2023-04-24T08:19:06;11.43;;;6.35;;
76409;SDS011;65238;42.662;23.280;2023-04-24T08:21:32;8.95;;;6.38;;
76409;SDS011;65238;42.662;23.280;2023-04-24T08:23:57;10.23;;;6.90;;
76409;SDS011;65238;42.662;23.280;2023-04-24T08:26:23;9.48;;;6.50;;
76409;SDS011;65238;42.662;23.280;2023-04-24T08:28:49;11.05;;;6.85;;
76409;SDS011;65238;42.662;23.280;2023-04-24T08:31:14;11.70;;;6.80;;
76409;SDS011;65238;42.662;23.280;2023-04-24T08:33:40;11.18;;;6.20;;
76409;SDS011;65238;42.662;23.280;2023-04-24T08:36:06;10.73;;;5.80;;
76409;SDS011;65238;42.662;23.280;2023-04-24T08:38:32;12.10;;;5.97;;
76409;SDS011;65238;42.662;23.280;2023-04-24T08:40:59;11.00;;;7.10;;
76409;SDS011;65238;42.662;23.280;2023-04-24T08:43:25;12.88;;;6.93;;
76409;SDS011;65238;42.662;23.280;2023-04-24T08:45:51;10.20;;;6.57;;
76409;SDS011;65238;42.662;23.280;2023-04-24T08:48:17;12.65;;;7.13;;
76409;SDS011;65238;42.662;23.280;2023-04-24T08:50:43;12.32;;;6.25;;
76409;SDS011;65238;42.662;23.280;2023-04-24T08:53:10;10.05;;;6.25;;
76409;SDS011;65238;42.662;23.280;2023-04-24T08:55:35;13.43;;;7.47;;
76409;SDS011;65238;42.662;23.280;2023-04-24T08:58:02;13.38;;;6.60;;
76409;SDS011;65238;42.662;23.280;2023-04-24T09:00:28;12.70;;;6.30;;
76409;SDS011;65238;42.662;23.280;2023-04-24T09:02:54;13.60;;;6.30;;
76409;SDS011;65238;42.662;23.280;2023-04-24T09:05:20;8.77;;;6.65;;
76409;SDS011;65238;42.662;23.280;2023-04-24T09:07:49;10.35;;;5.95;;
76409;SDS011;65238;42.662;23.280;2023-04-24T09:10:24;12.30;;;6.05;;
76409;SDS011;65238;42.662;23.280;2023-04-24T09:12:50;8.63;;;6.53;;
76409;SDS011;65238;42.662;23.280;2023-04-24T09:15:17;9.77;;;5.68;;
76409;SDS011;65238;42.662;23.280;2023-04-24T09:17:43;9.52;;;6.38;;
76409;SDS011;65238;42.662;23.280;2023-04-24T09:20:09;10.73;;;6.72;;
76409;SDS011;65238;42.662;23.280;2023-04-24T09:22:35;8.95;;;5.97;;
76409;SDS011;65238;42.662;23.280;2023-04-24T09:25:05;9.82;;;6.53;;
76409;SDS011;65238;42.662;23.280;2023-04-24T09:27:32;12.05;;;6.10;;
76409;SDS011;65238;42.662;23.280;2023-04-24T09:29:58;15.27;;;6.10;;
76409;SDS011;65238;42.662;23.280;2023-04-24T09:32:24;12.00;;;7.18;;
76409;SDS011;65238;42.662;23.280;2023-04-24T09:35:05;9.00;;;5.25;;
76409;SDS011;65238;42.662;23.280;2023-04-24T09:37:38;9.88;;;5.72;;
76409;SDS011;65238;42.662;23.280;2023-04-24T09:40:17;9.82;;;5.82;;
76409;SDS011;65238;42.662;23.280;2023-04-24T09:42:45;12.82;;;6.95;;
76409;SDS011;65238;42.662;23.280;2023-04-24T09:45:12;8.13;;;5.50;;
76409;SDS011;65238;42.662;23.280;2023-04-24T09:47:37;12.57;;;5.40;;
76409;SDS011;65238;42.662;23.280;2023-04-24T09:50:14;9.23;;;5.93;;
76409;SDS011;65238;42.662;23.280;2023-04-24T09:52:45;8.25;;;5.90;;
76409;SDS011;65238;42.662;23.280;2023-04-24T09:55:16;10.97;;;5.83;;
76409;SDS011;65238;42.662;23.280;2023-04-24T09:58:01;9.15;;;5.22;;
76409;SDS011;65238;42.662;23.280;2023-04-24T10:00:30;14.68;;;5.68;;
76409;SDS011;65238;42.662;23.280;2023-04-24T10:03:00;9.80;;;5.68;;
76409;SDS011;65238;42.662;23.280;2023-04-24T10:05:27;8.02;;;5.13;;
76409;SDS011;65238;42.662;23.280;2023-04-24T10:08:03;9.93;;;6.60;;
76409;SDS011;65238;42.662;23.280;2023-04-24T10:10:39;11.10;;;5.22;;
76409;SDS011;65238;42.662;23.280;2023-04-24T10:13:07;7.30;;;5.45;;
76409;SDS011;65238;42.662;23.280;2023-04-24T10:15:32;11.27;;;5.05;;
76409;SDS011;65238;42.662;23.280;2023-04-24T10:17:58;10.90;;;6.60;;
76409;SDS011;65238;42.662;23.280;2023-04-24T10:20:25;10.43;;;5.30;;
76409;SDS011;65238;42.662;23.280;2023-04-24T10:22:54;9.63;;;5.68;;
76409;SDS011;65238;42.662;23.280;2023-04-24T10:25:20;9.48;;;4.25;;
76409;SDS011;65238;42.662;23.280;2023-04-24T10:27:47;8.40;;;4.65;;
76409;SDS011;65238;42.662;23.280;2023-04-24T10:30:13;8.18;;;4.40;;
76409;SDS011;65238;42.662;23.280;2023-04-24T10:32:39;9.02;;;4.22;;
76409;SDS011;65238;42.662;23.280;2023-04-24T10:35:09;10.77;;;4.85;;
76409;SDS011;65238;42.662;23.280;2023-04-24T10:37:36;7.22;;;4.57;;
76409;SDS011;65238;42.662;23.280;2023-04-24T10:40:04;7.25;;;3.85;;
76409;SDS011;65238;42.662;23.280;2023-04-24T10:42:32;4.20;;;3.47;;
76409;SDS011;65238;42.662;23.280;2023-04-24T10:44:57;7.93;;;3.25;;
76409;SDS011;65238;42.662;23.280;2023-04-24T10:47:23;6.80;;;3.78;;
76409;SDS011;65238;42.662;23.280;2023-04-24T10:49:50;8.35;;;3.78;;
76409;SDS011;65238;42.662;23.280;2023-04-24T10:52:16;8.10;;;3.20;;
76409;SDS011;65238;42.662;23.280;2023-04-24T10:59:43;6.50;;;3.55;;
76409;SDS011;65238;42.662;23.280;2023-04-24T11:02:08;7.95;;;4.20;;
76409;SDS011;65238;42.662;23.280;2023-04-24T11:04:34;5.57;;;3.78;;
76409;SDS011;65238;42.662;23.280;2023-04-24T11:07:00;8.07;;;3.90;;
76409;SDS011;65238;42.662;23.280;2023-04-24T11:09:26;6.60;;;4.20;;
76409;SDS011;65238;42.662;23.280;2023-04-24T11:12:02;10.65;;;3.75;;
76409;SDS011;65238;42.662;23.280;2023-04-24T11:14:29;6.43;;;3.50;;
76409;SDS011;65238;42.662;23.280;2023-04-24T11:16:55;5.50;;;3.60;;
76409;SDS011;65238;42.662;23.280;2023-04-24T11:19:22;13.80;;;4.32;;
76409;SDS011;65238;42.662;23.280;2023-04-24T11:21:58;7.47;;;3.40;;
76409;SDS011;65238;42.662;23.280;2023-04-24T11:27:18;6.13;;;3.28;;
76409;SDS011;65238;42.662;23.280;2023-04-24T11:29:49;3.25;;;2.95;;
76409;SDS011;65238;42.662;23.280;2023-04-24T11:32:33;4.88;;;3.05;;
76409;SDS011;65238;42.662;23.280;2023-04-24T11:37:27;3.28;;;2.97;;
76409;SDS011;65238;42.662;23.280;2023-04-24T11:39:55;4.10;;;3.13;;
76409;SDS011;65238;42.662;23.280;2023-04-24T11:42:22;5.45;;;3.03;;
76409;SDS011;65238;42.662;23.280;2023-04-24T11:44:54;3.78;;;3.10;;
76409;SDS011;65238;42.662;23.280;2023-04-24T11:47:27;5.72;;;3.60;;
76409;SDS011;65238;42.662;23.280;2023-04-24T11:49:56;5.35;;;4.53;;
76409;SDS011;65238;42.662;23.280;2023-04-24T11:52:21;7.65;;;4.22;;
76409;SDS011;65238;42.662;23.280;2023-04-24T11:54:47;7.45;;;4.40;;
76409;SDS011;65238;42.662;23.280;2023-04-24T11:57:14;6.82;;;4.82;;
76409;SDS011;65238;42.662;23.280;2023-04-24T11:59:39;5.07;;;4.18;;
76409;SDS011;65238;42.662;23.280;2023-04-24T12:02:05;6.47;;;3.88;;
76409;SDS011;65238;42.662;23.280;2023-04-24T12:04:40;6.28;;;4.25;;
76409;SDS011;65238;42.662;23.280;2023-04-24T12:07:06;4.57;;;4.03;;
76409;SDS011;65238;42.662;23.280;2023-04-24T12:09:46;5.95;;;4.00;;
76409;SDS011;65238;42.662;23.280;2023-04-24T12:12:14;4.85;;;4.20;;
76409;SDS011;65238;42.662;23.280;2023-04-24T12:14:48;5.88;;;3.80;;
76409;SDS011;65238;42.662;23.280;2023-04-24T12:17:15;4.43;;;3.90;;
76409;SDS011;65238;42.662;23.280;2023-04-24T12:19:45;6.45;;;3.83;;
76409;SDS011;65238;42.662;23.280;2023-04-24T12:22:11;5.80;;;3.67;;
76409;SDS011;65238;42.662;23.280;2023-04-24T12:24:55;4.75;;;3.70;;
76409;SDS011;65238;42.662;23.280;2023-04-24T12:27:24;5.13;;;3.72;;
76409;SDS011;65238;42.662;23.280;2023-04-24T12:29:53;5.50;;;3.90;;
76409;SDS011;65238;42.662;23.280;2023-04-24T12:32:21;4.20;;;3.80;;
76409;SDS011;65238;42.662;23.280;2023-04-24T12:34:46;6.03;;;3.88;;
76409;SDS011;65238;42.662;23.280;2023-04-24T12:37:12;5.90;;;3.65;;
76409;SDS011;65238;42.662;23.280;2023-04-24T12:39:37;5.63;;;3.55;;
76409;SDS011;65238;42.662;23.280;2023-04-24T12:42:03;4.15;;;3.53;;
76409;SDS011;65238;42.662;23.280;2023-04-24T12:44:29;5.32;;;4.13;;
76409;SDS011;65238;42.662;23.280;2023-04-24T12:47:03;5.75;;;4.28;;
76409;SDS011;65238;42.662;23.280;2023-04-24T12:49:29;6.93;;;3.97;;
76409;SDS011;65238;42.662;23.280;2023-04-24T12:51:55;7.72;;;4.25;;
76409;SDS011;65238;42.662;23.280;2023-04-24T12:54:21;5.57;;;3.88;;
76409;SDS011;65238;42.662;23.280;2023-04-24T12:56:47;4.30;;;3.75;;
76409;SDS011;65238;42.662;23.280;2023-04-24T12:59:12;5.20;;;3.70;;
76409;SDS011;65238;42.662;23.280;2023-04-24T13:01:38;6.10;;;3.80;;
76409;SDS011;65238;42.662;23.280;2023-04-24T13:04:03;4.70;;;3.70;;
76409;SDS011;65238;42.662;23.280;2023-04-24T13:06:29;5.30;;;3.88;;
76409;SDS011;65238;42.662;23.280;2023-04-24T13:08:55;7.00;;;3.70;;
76409;SDS011;65238;42.662;23.280;2023-04-24T13:11:22;7.90;;;4.07;;
76409;SDS011;65238;42.662;23.280;2023-04-24T13:13:48;6.38;;;4.00;;
76409;SDS011;65238;42.662;23.280;2023-04-24T13:16:14;4.32;;;3.30;;
76409;SDS011;65238;42.662;23.280;2023-04-24T13:18:39;5.82;;;3.60;;
76409;SDS011;65238;42.662;23.280;2023-04-24T13:21:05;6.10;;;3.50;;
76409;SDS011;65238;42.662;23.280;2023-04-24T13:23:30;7.95;;;3.50;;
76409;SDS011;65238;42.662;23.280;2023-04-24T13:25:55;4.97;;;3.58;;
76409;SDS011;65238;42.662;23.280;2023-04-24T13:28:24;4.60;;;3.47;;
76409;SDS011;65238;42.662;23.280;2023-04-24T13:30:50;7.38;;;3.65;;
76409;SDS011;65238;42.662;23.280;2023-04-24T13:33:15;4.97;;;3.45;;
76409;SDS011;65238;42.662;23.280;2023-04-24T13:35:41;10.77;;;3.72;;
76409;SDS011;65238;42.662;23.280;2023-04-24T13:38:06;5.93;;;3.65;;
76409;SDS011;65238;42.662;23.280;2023-04-24T13:40:32;7.72;;;3.75;;
76409;SDS011;65238;42.662;23.280;2023-04-24T13:42:57;6.20;;;3.88;;
76409;SDS011;65238;42.662;23.280;2023-04-24T13:45:22;6.00;;;4.05;;
76409;SDS011;65238;42.662;23.280;2023-04-24T13:47:48;4.72;;;3.53;;
76409;SDS011;65238;42.662;23.280;2023-04-24T13:50:13;6.03;;;3.50;;
76409;SDS011;65238;42.662;23.280;2023-04-24T13:52:40;3.90;;;3.50;;
76409;SDS011;65238;42.662;23.280;2023-04-24T13:55:05;6.00;;;3.53;;
76409;SDS011;65238;42.662;23.280;2023-04-24T13:57:31;4.22;;;3.17;;
76409;SDS011;65238;42.662;23.280;2023-04-24T13:59:57;6.28;;;3.55;;
76409;SDS011;65238;42.662;23.280;2023-04-24T14:02:26;5.55;;;3.25;;
76409;SDS011;65238;42.662;23.280;2023-04-24T14:04:52;5.88;;;3.58;;
76409;SDS011;65238;42.662;23.280;2023-04-24T14:07:17;6.85;;;4.35;;
76409;SDS011;65238;42.662;23.280;2023-04-24T14:09:42;6.80;;;5.07;;
76409;SDS011;65238;42.662;23.280;2023-04-24T14:12:08;7.65;;;3.70;;
76409;SDS011;65238;42.662;23.280;2023-04-24T14:14:33;5.32;;;4.05;;
76409;SDS011;65238;42.662;23.280;2023-04-24T14:16:59;6.25;;;4.13;;
76409;SDS011;65238;42.662;23.280;2023-04-24T14:19:24;6.78;;;4.03;;
76409;SDS011;65238;42.662;23.280;2023-04-24T14:21:50;6.60;;;3.40;;
76409;SDS011;65238;42.662;23.280;2023-04-24T14:24:15;5.57;;;3.80;;
76409;SDS011;65238;42.662;23.280;2023-04-24T14:26:41;6.22;;;3.58;;
76409;SDS011;65238;42.662;23.280;2023-04-24T14:29:06;4.55;;;3.55;;